West Alex, Ohio
Current Conditions -  °F | °C
As of 10:35 PM on Monday 22 Dec 2014 (Local Time) from KMWO Reporting Station
Broken Clouds Broken Clouds  
Wind Chill: 49°   Ceiling: 8000
Heat Index: 49°   Visibility: 10mi
Dew Point: 40°   Wind: 3mph
Humidity: 69%   Direction: 130°SE
Pressure: 29.75"   Gusts: NA
Location:  39.7249°N, 84.5328°W
Report Text: KMWO 230335Z AUTO 13003KT 10SM BKN080 10/04 A2975 RMK AO2 T00960042
Loading
Personal Weather Stations






























Interactive Weather Map New forecast layout! Learn more

10-Day Weather Forecast

Advertisements
Track Severe Weather on mobile